createdAt,value
2022-08-17T00:02:25.551Z,84.27
2022-08-17T00:07:31.162Z,84.50
2022-08-17T00:12:44.619Z,82.93
2022-08-17T00:17:49.599Z,81.45
2022-08-17T00:23:03.989Z,80.59
2022-08-17T00:28:07.583Z,82.76
2022-08-17T00:33:16.483Z,80.69
2022-08-17T00:38:28.844Z,81.96
2022-08-17T00:43:35.620Z,85.41
2022-08-17T00:48:39.303Z,86.93
2022-08-17T00:53:46.422Z,87.20
2022-08-17T00:58:51.414Z,88.41
2022-08-17T01:03:55.629Z,89.31
2022-08-17T01:09:05.480Z,88.56
2022-08-17T01:14:08.928Z,89.20
2022-08-17T01:19:17.167Z,89.26
2022-08-17T01:24:21.781Z,87.93
2022-08-17T01:29:25.835Z,86.31
2022-08-17T01:34:42.638Z,85.88
2022-08-17T01:39:51.973Z,86.54
2022-08-17T01:44:58.526Z,85.78
2022-08-17T01:50:08.541Z,93.82
2022-08-17T01:55:14.532Z,90.27
2022-08-17T02:00:18.254Z,87.06
2022-08-17T02:05:21.058Z,87.96
2022-08-17T02:10:25.400Z,86.80
2022-08-17T02:15:36.969Z,92.38
2022-08-17T02:20:41.851Z,94.60
2022-08-17T02:25:48.848Z,93.99
2022-08-17T02:31:00.858Z,94.46
2022-08-17T02:36:06.758Z,95.07
2022-08-17T02:41:12.962Z,96.44
2022-08-17T02:46:15.773Z,95.46
2022-08-17T02:51:18.563Z,94.79
2022-08-17T02:56:22.667Z,94.25
2022-08-17T03:01:25.475Z,95.86
2022-08-17T03:06:29.127Z,94.75
2022-08-17T03:11:33.199Z,94.72
2022-08-17T03:16:35.946Z,94.82
2022-08-17T03:21:39.040Z,91.68
2022-08-17T03:26:43.224Z,91.50
2022-08-17T03:31:46.654Z,95.47
2022-08-17T03:36:49.425Z,96.78
2022-08-17T03:41:53.477Z,97.21
2022-08-17T03:47:13.874Z,96.45
2022-08-17T03:52:42.549Z,97.29
2022-08-17T03:57:46.909Z,92.25
2022-08-17T04:02:49.951Z,90.92
2022-08-17T04:07:52.775Z,96.22
2022-08-17T04:12:58.211Z,99.62
2022-08-17T04:18:01.251Z,98.20
2022-08-17T04:23:06.431Z,98.85
2022-08-17T04:28:16.153Z,99.54
2022-08-17T04:33:21.809Z,98.57
2022-08-17T04:38:26.213Z,98.13
2022-08-17T04:43:32.844Z,98.73
2022-08-17T04:48:38.202Z,99.39
2022-08-17T04:53:44.029Z,98.00
2022-08-17T04:58:51.527Z,97.83
2022-08-17T05:03:56.094Z,97.75
2022-08-17T05:08:59.942Z,97.22
2022-08-17T05:14:04.665Z,94.64
2022-08-17T05:19:07.392Z,94.41
2022-08-17T05:24:38.510Z,93.11
2022-08-17T05:29:35.617Z,92.59
2022-08-17T05:34:39.260Z,91.72
2022-08-17T05:39:42.010Z,90.91
2022-08-17T05:44:46.118Z,90.38
2022-08-17T05:49:49.258Z,89.47
2022-08-17T05:55:04.894Z,89.65
2022-08-17T06:00:15.697Z,88.10
2022-08-17T06:05:39.920Z,91.66
2022-08-17T06:10:50.522Z,90.09
2022-08-17T06:16:02.979Z,90.67
2022-08-17T06:21:08.794Z,86.82
2022-08-17T06:26:15.644Z,86.98
2022-08-17T06:31:27.380Z,85.08
2022-08-17T06:36:41.700Z,81.81
2022-08-17T06:41:54.912Z,81.67
2022-08-17T06:47:07.103Z,80.62
2022-08-17T06:52:43.360Z,79.63
2022-08-17T06:57:43.352Z,78.40
2022-08-17T07:02:53.025Z,77.77
2022-08-17T07:08:03.332Z,80.89
2022-08-17T07:13:25.590Z,80.86
2022-08-17T07:18:33.061Z,76.56
2022-08-17T07:23:47.412Z,75.73
2022-08-17T07:28:50.780Z,74.88
2022-08-17T07:34:04.398Z,74.67
2022-08-17T07:39:07.112Z,74.89
2022-08-17T07:44:16.402Z,74.22
2022-08-17T07:49:24.775Z,73.09
2022-08-17T07:54:32.476Z,72.98
2022-08-17T07:59:36.873Z,72.80
2022-08-17T08:05:02.385Z,73.92
2022-08-17T08:10:10.870Z,74.38
2022-08-17T08:15:18.489Z,75.39
2022-08-17T08:20:40.879Z,75.71
2022-08-17T08:26:09.403Z,76.89
2022-08-17T08:31:25.191Z,77.08
2022-08-17T08:37:02.024Z,73.72
2022-08-17T08:42:12.546Z,72.40
2022-08-17T08:47:23.379Z,71.79
2022-08-17T08:52:49.168Z,71.53
2022-08-17T08:57:57.933Z,71.47
2022-08-17T09:03:20.032Z,70.85
2022-08-17T09:08:38.405Z,71.03
2022-08-17T09:13:54.379Z,70.47
2022-08-17T09:19:04.983Z,71.73
2022-08-17T09:24:15.428Z,70.41
2022-08-17T09:29:32.568Z,69.29
2022-08-17T09:34:51.044Z,69.34
2022-08-17T09:40:10.450Z,68.05
2022-08-17T09:45:27.517Z,66.43
2022-08-17T09:51:04.005Z,66.81
2022-08-17T09:56:20.840Z,65.09
2022-08-17T10:01:31.510Z,64.41
2022-08-17T10:06:53.610Z,62.80
2022-08-17T10:12:20.303Z,62.71
2022-08-17T10:17:28.787Z,62.58
2022-08-17T10:22:57.997Z,64.10
2022-08-17T10:28:09.795Z,64.53
2022-08-17T10:33:27.834Z,65.48
2022-08-17T10:38:45.996Z,67.59
2022-08-17T10:44:37.031Z,69.02
2022-08-17T10:49:29.392Z,69.47
2022-08-17T10:54:41.685Z,69.56
2022-08-17T10:59:53.756Z,70.42
2022-08-17T11:05:24.830Z,70.06
2022-08-17T11:10:45.568Z,69.35
2022-08-17T11:16:07.761Z,68.58
2022-08-17T11:21:40.409Z,65.52
2022-08-17T11:26:48.738Z,61.98
2022-08-17T11:32:07.737Z,58.60
2022-08-17T11:37:42.710Z,58.57
2022-08-17T11:43:14.935Z,56.00
2022-08-17T11:48:40.708Z,53.33
2022-08-17T11:54:30.689Z,50.42
2022-08-17T11:59:57.690Z,49.72
2022-08-17T12:05:13.903Z,50.13
2022-08-17T12:10:21.597Z,49.79
2022-08-17T12:15:30.664Z,47.92
2022-08-17T12:20:39.526Z,47.18
2022-08-17T12:25:49.329Z,44.94
2022-08-17T12:30:52.970Z,42.93
2022-08-17T12:36:02.769Z,42.34
2022-08-17T12:41:21.921Z,42.97
2022-08-17T12:46:24.690Z,40.06
2022-08-17T12:51:30.036Z,38.17
2022-08-17T12:56:32.834Z,36.44
2022-08-17T13:01:38.782Z,39.00
2022-08-17T13:06:50.903Z,38.57
2022-08-17T13:12:02.388Z,37.42
2022-08-17T13:17:13.290Z,38.21
2022-08-17T13:22:23.795Z,40.11
2022-08-17T13:27:28.683Z,39.82
2022-08-17T13:32:43.667Z,42.34
2022-08-17T13:37:58.949Z,44.94
2022-08-17T13:43:03.280Z,46.29
2022-08-17T13:48:12.498Z,46.81
2022-08-17T13:53:21.143Z,46.10
2022-08-17T13:58:27.588Z,46.48
2022-08-17T14:03:30.362Z,42.30
2022-08-17T14:08:34.911Z,38.83
2022-08-17T14:13:37.707Z,39.25
2022-08-17T14:18:56.918Z,38.04
2022-08-17T14:24:01.560Z,41.51
2022-08-17T14:29:05.135Z,42.79
2022-08-17T14:34:19.833Z,40.87
2022-08-17T14:39:25.247Z,43.21
2022-08-17T14:44:28.121Z,44.63
2022-08-17T14:49:31.516Z,43.37
2022-08-17T14:54:35.708Z,39.41
2022-08-17T14:59:38.521Z,37.80
2022-08-17T15:04:45.526Z,40.44
2022-08-17T15:09:50.068Z,42.50
2022-08-17T15:14:53.177Z,42.44
2022-08-17T15:19:55.875Z,43.50
2022-08-17T15:25:05.467Z,39.53
2022-08-17T15:30:09.885Z,37.41
2022-08-17T15:35:14.310Z,39.78
2022-08-17T15:40:19.271Z,39.54
2022-08-17T15:45:26.929Z,41.18
2022-08-17T15:50:30.812Z,35.91
2022-08-17T15:55:36.592Z,34.75
2022-08-17T16:01:14.192Z,33.13
2022-08-17T16:06:02.619Z,29.62
2022-08-17T16:11:08.287Z,33.20
2022-08-17T16:16:11.732Z,34.37
2022-08-17T16:21:42.461Z,37.91
2022-08-17T16:26:47.331Z,38.22
2022-08-17T16:31:51.203Z,35.32
2022-08-17T16:36:56.487Z,34.96
2022-08-17T16:42:02.673Z,36.71
2022-08-17T16:47:07.381Z,35.51
2022-08-17T16:52:11.313Z,39.32
2022-08-17T16:57:17.452Z,41.90
2022-08-17T17:02:31.369Z,44.20
2022-08-17T17:07:49.613Z,40.62
2022-08-17T17:13:03.195Z,40.05
2022-08-17T17:18:12.250Z,43.24
2022-08-17T17:23:29.043Z,44.97
2022-08-17T17:28:43.439Z,45.80
2022-08-17T17:33:50.364Z,47.79
2022-08-17T17:38:55.549Z,50.12
2022-08-17T17:44:08.945Z,51.11
2022-08-17T17:49:14.207Z,52.23
2022-08-17T17:54:32.450Z,53.03
2022-08-17T17:59:49.522Z,54.10
2022-08-17T18:05:03.934Z,54.27
2022-08-17T18:10:29.665Z,55.22
2022-08-17T18:15:37.847Z,55.33
2022-08-17T18:20:43.295Z,56.40
2022-08-17T18:25:58.695Z,58.17
2022-08-17T18:31:22.001Z,59.31
2022-08-17T18:36:29.554Z,59.44
2022-08-17T18:41:41.371Z,60.84
2022-08-17T18:46:45.497Z,62.18
2022-08-17T18:51:48.302Z,64.00
2022-08-17T18:56:56.896Z,65.20
2022-08-17T19:02:33.664Z,66.34
2022-08-17T19:07:45.781Z,66.59
2022-08-17T19:12:52.714Z,66.66
2022-08-17T19:18:00.199Z,67.45
2022-08-17T19:23:12.139Z,66.92
2022-08-17T19:28:22.907Z,66.20
2022-08-17T19:33:27.353Z,67.57
2022-08-17T19:38:45.607Z,68.47
2022-08-17T19:44:01.926Z,69.05
2022-08-17T19:49:14.591Z,69.21
2022-08-17T19:54:26.437Z,69.35
2022-08-17T19:59:50.987Z,70.88
2022-08-17T20:04:59.770Z,71.01
2022-08-17T20:10:07.890Z,71.75
2022-08-17T20:15:12.927Z,70.74
2022-08-17T20:20:27.693Z,71.46
2022-08-17T20:25:36.950Z,73.67
2022-08-17T20:30:41.100Z,71.50
2022-08-17T20:36:03.371Z,73.18
2022-08-17T20:41:16.067Z,72.29
2022-08-17T20:46:50.184Z,73.10
2022-08-17T20:52:02.556Z,73.88
2022-08-17T20:57:06.179Z,73.48
2022-08-17T21:02:21.530Z,75.14
2022-08-17T21:07:29.944Z,75.60
2022-08-17T21:12:48.378Z,77.19
2022-08-17T21:18:02.857Z,76.63
2022-08-17T21:23:37.072Z,77.88
2022-08-17T21:29:00.888Z,78.43
2022-08-17T21:34:35.523Z,79.69
2022-08-17T21:39:41.634Z,79.91
2022-08-17T21:44:49.582Z,79.00
2022-08-17T21:49:52.814Z,79.65
2022-08-17T21:55:00.271Z,79.90
2022-08-17T22:00:15.324Z,78.74
2022-08-17T22:05:30.169Z,78.95
2022-08-17T22:10:39.354Z,77.17
2022-08-17T22:15:43.765Z,80.30
2022-08-17T22:20:50.721Z,81.83
2022-08-17T22:26:04.207Z,81.04
2022-08-17T22:31:09.830Z,82.89
2022-08-17T22:36:29.242Z,84.31
2022-08-17T22:41:51.130Z,84.68
2022-08-17T22:47:04.415Z,83.38
2022-08-17T22:52:29.946Z,82.34
2022-08-17T22:57:51.503Z,81.83
2022-08-17T23:03:09.001Z,86.56
2022-08-17T23:08:12.710Z,85.11
2022-08-17T23:13:16.894Z,88.56
2022-08-17T23:18:20.428Z,90.53
2022-08-17T23:23:23.895Z,87.58
2022-08-17T23:28:28.500Z,87.46
2022-08-17T23:33:34.667Z,90.19
2022-08-17T23:38:37.526Z,89.51
2022-08-17T23:43:44.086Z,88.67
2022-08-17T23:48:47.579Z,89.19
2022-08-17T23:53:55.508Z,92.04
2022-08-17T23:59:00.178Z,94.21
